sensor_id;sensor_type;location;lat;lon;timestamp;temperature;humidity
39951;DHT22;25629;51.444;-2.606;2023-04-26T00:02:09;9.00;99.90
39951;DHT22;25629;51.444;-2.606;2023-04-26T00:04:36;9.00;99.90
39951;DHT22;25629;51.444;-2.606;2023-04-26T00:07:02;9.00;99.90
39951;DHT22;25629;51.444;-2.606;2023-04-26T00:09:27;9.00;99.90
39951;DHT22;25629;51.444;-2.606;2023-04-26T00:11:53;9.00;99.90
39951;DHT22;25629;51.444;-2.606;2023-04-26T00:14:19;9.00;99.90
39951;DHT22;25629;51.444;-2.606;2023-04-26T00:16:45;9.00;99.90
39951;DHT22;25629;51.444;-2.606;2023-04-26T00:19:10;9.00;99.90
39951;DHT22;25629;51.444;-2.606;2023-04-26T00:21:37;9.10;99.90
39951;DHT22;25629;51.444;-2.606;2023-04-26T00:24:03;9.10;99.90
39951;DHT22;25629;51.444;-2.606;2023-04-26T00:26:30;9.00;99.90
39951;DHT22;25629;51.444;-2.606;2023-04-26T00:28:55;9.00;99.90
39951;DHT22;25629;51.444;-2.606;2023-04-26T00:31:21;9.00;99.90
39951;DHT22;25629;51.444;-2.606;2023-04-26T00:33:46;9.00;99.90
39951;DHT22;25629;51.444;-2.606;2023-04-26T00:36:12;9.00;99.90
39951;DHT22;25629;51.444;-2.606;2023-04-26T00:38:37;9.10;99.90
39951;DHT22;25629;51.444;-2.606;2023-04-26T00:41:03;9.10;99.90
39951;DHT22;25629;51.444;-2.606;2023-04-26T00:43:28;9.00;99.90
39951;DHT22;25629;51.444;-2.606;2023-04-26T00:45:54;9.10;99.90
39951;DHT22;25629;51.444;-2.606;2023-04-26T00:48:19;9.00;99.90
39951;DHT22;25629;51.444;-2.606;2023-04-26T00:50:45;9.00;99.90
39951;DHT22;25629;51.444;-2.606;2023-04-26T00:53:13;9.00;99.90
39951;DHT22;25629;51.444;-2.606;2023-04-26T00:55:42;9.00;1.00
39951;DHT22;25629;51.444;-2.606;2023-04-26T00:58:07;9.00;1.00
39951;DHT22;25629;51.444;-2.606;2023-04-26T01:00:33;9.00;1.00
39951;DHT22;25629;51.444;-2.606;2023-04-26T01:02:58;9.00;1.00
39951;DHT22;25629;51.444;-2.606;2023-04-26T01:05:24;9.00;1.00
39951;DHT22;25629;51.444;-2.606;2023-04-26T01:07:50;9.00;1.00
39951;DHT22;25629;51.444;-2.606;2023-04-26T01:10:16;9.00;1.00
39951;DHT22;25629;51.444;-2.606;2023-04-26T01:12:42;9.00;1.00
39951;DHT22;25629;51.444;-2.606;2023-04-26T01:15:08;8.90;1.00
39951;DHT22;25629;51.444;-2.606;2023-04-26T01:17:34;8.80;1.00
39951;DHT22;25629;51.444;-2.606;2023-04-26T01:20:02;8.80;1.00
39951;DHT22;25629;51.444;-2.606;2023-04-26T01:22:31;8.90;1.00
39951;DHT22;25629;51.444;-2.606;2023-04-26T01:24:57;8.90;1.00
39951;DHT22;25629;51.444;-2.606;2023-04-26T01:27:23;8.80;1.00
39951;DHT22;25629;51.444;-2.606;2023-04-26T01:29:49;8.70;99.90
39951;DHT22;25629;51.444;-2.606;2023-04-26T01:32:15;8.80;1.00
39951;DHT22;25629;51.444;-2.606;2023-04-26T01:34:40;8.80;1.00
39951;DHT22;25629;51.444;-2.606;2023-04-26T01:37:06;8.80;1.00
39951;DHT22;25629;51.444;-2.606;2023-04-26T01:39:32;8.80;1.00
39951;DHT22;25629;51.444;-2.606;2023-04-26T01:41:57;8.80;1.00
39951;DHT22;25629;51.444;-2.606;2023-04-26T01:44:23;8.80;1.00
39951;DHT22;25629;51.444;-2.606;2023-04-26T01:46:48;8.80;1.00
39951;DHT22;25629;51.444;-2.606;2023-04-26T01:49:14;8.80;50.00
39951;DHT22;25629;51.444;-2.606;2023-04-26T01:51:40;8.90;1.00
39951;DHT22;25629;51.444;-2.606;2023-04-26T01:54:06;8.90;23.00
39951;DHT22;25629;51.444;-2.606;2023-04-26T01:56:32;8.80;1.00
39951;DHT22;25629;51.444;-2.606;2023-04-26T01:58:57;8.90;1.00
39951;DHT22;25629;51.444;-2.606;2023-04-26T02:01:23;8.80;99.90
39951;DHT22;25629;51.444;-2.606;2023-04-26T02:03:49;8.80;1.00
39951;DHT22;25629;51.444;-2.606;2023-04-26T02:06:15;8.80;1.00
39951;DHT22;25629;51.444;-2.606;2023-04-26T02:08:41;8.80;1.00
39951;DHT22;25629;51.444;-2.606;2023-04-26T02:11:06;8.80;1.00
39951;DHT22;25629;51.444;-2.606;2023-04-26T02:13:32;8.80;99.90
39951;DHT22;25629;51.444;-2.606;2023-04-26T02:15:57;8.80;99.90
39951;DHT22;25629;51.444;-2.606;2023-04-26T02:18:23;8.80;99.90
39951;DHT22;25629;51.444;-2.606;2023-04-26T02:20:49;8.80;99.90
39951;DHT22;25629;51.444;-2.606;2023-04-26T02:23:14;8.80;99.90
39951;DHT22;25629;51.444;-2.606;2023-04-26T02:25:40;8.90;99.90
39951;DHT22;25629;51.444;-2.606;2023-04-26T02:28:06;8.80;99.90
39951;DHT22;25629;51.444;-2.606;2023-04-26T02:30:32;8.80;99.90
39951;DHT22;25629;51.444;-2.606;2023-04-26T02:32:58;8.80;99.90
39951;DHT22;25629;51.444;-2.606;2023-04-26T02:35:23;8.80;99.90
39951;DHT22;25629;51.444;-2.606;2023-04-26T02:37:49;8.80;99.90
39951;DHT22;25629;51.444;-2.606;2023-04-26T02:40:16;8.80;99.90
39951;DHT22;25629;51.444;-2.606;2023-04-26T02:42:42;8.80;99.90
39951;DHT22;25629;51.444;-2.606;2023-04-26T02:45:08;8.70;99.90
39951;DHT22;25629;51.444;-2.606;2023-04-26T02:47:33;8.70;99.90
39951;DHT22;25629;51.444;-2.606;2023-04-26T02:50:01;8.70;99.90
39951;DHT22;25629;51.444;-2.606;2023-04-26T02:52:28;8.70;99.90
39951;DHT22;25629;51.444;-2.606;2023-04-26T02:54:55;8.70;99.90
39951;DHT22;25629;51.444;-2.606;2023-04-26T02:57:21;8.70;99.90
39951;DHT22;25629;51.444;-2.606;2023-04-26T02:59:46;8.70;99.90
39951;DHT22;25629;51.444;-2.606;2023-04-26T03:02:12;8.70;99.90
39951;DHT22;25629;51.444;-2.606;2023-04-26T03:04:37;8.70;99.90
39951;DHT22;25629;51.444;-2.606;2023-04-26T03:07:04;8.60;99.90
39951;DHT22;25629;51.444;-2.606;2023-04-26T03:09:29;8.50;99.90
39951;DHT22;25629;51.444;-2.606;2023-04-26T03:11:55;8.60;99.90
39951;DHT22;25629;51.444;-2.606;2023-04-26T03:14:21;8.50;99.90
39951;DHT22;25629;51.444;-2.606;2023-04-26T03:16:47;8.50;99.90
39951;DHT22;25629;51.444;-2.606;2023-04-26T03:19:13;8.50;99.90
39951;DHT22;25629;51.444;-2.606;2023-04-26T03:21:38;8.50;99.90
39951;DHT22;25629;51.444;-2.606;2023-04-26T03:24:04;8.40;99.90
39951;DHT22;25629;51.444;-2.606;2023-04-26T03:26:30;8.40;99.90
39951;DHT22;25629;51.444;-2.606;2023-04-26T03:28:55;8.40;99.90
39951;DHT22;25629;51.444;-2.606;2023-04-26T03:31:21;8.40;99.90
39951;DHT22;25629;51.444;-2.606;2023-04-26T03:33:48;8.40;99.90
39951;DHT22;25629;51.444;-2.606;2023-04-26T03:36:13;8.40;99.90
39951;DHT22;25629;51.444;-2.606;2023-04-26T03:38:39;8.40;99.90
39951;DHT22;25629;51.444;-2.606;2023-04-26T03:41:04;8.30;99.90
39951;DHT22;25629;51.444;-2.606;2023-04-26T03:43:30;8.30;99.90
39951;DHT22;25629;51.444;-2.606;2023-04-26T03:45:56;8.30;99.90
39951;DHT22;25629;51.444;-2.606;2023-04-26T03:48:22;8.30;99.90
39951;DHT22;25629;51.444;-2.606;2023-04-26T03:50:47;8.30;99.90
39951;DHT22;25629;51.444;-2.606;2023-04-26T03:53:13;8.30;99.90
39951;DHT22;25629;51.444;-2.606;2023-04-26T03:55:38;8.30;99.90
39951;DHT22;25629;51.444;-2.606;2023-04-26T03:58:04;8.30;99.90
39951;DHT22;25629;51.444;-2.606;2023-04-26T04:00:38;8.30;1.00
39951;DHT22;25629;51.444;-2.606;2023-04-26T04:03:05;8.30;1.00
39951;DHT22;25629;51.444;-2.606;2023-04-26T04:05:30;8.30;1.00
39951;DHT22;25629;51.444;-2.606;2023-04-26T04:07:56;8.20;1.00
39951;DHT22;25629;51.444;-2.606;2023-04-26T04:10:22;8.20;1.00
39951;DHT22;25629;51.444;-2.606;2023-04-26T04:12:48;8.10;55.60
39951;DHT22;25629;51.444;-2.606;2023-04-26T04:15:15;8.10;56.40
39951;DHT22;25629;51.444;-2.606;2023-04-26T04:17:41;8.10;99.90
39951;DHT22;25629;51.444;-2.606;2023-04-26T04:20:06;8.10;99.90
39951;DHT22;25629;51.444;-2.606;2023-04-26T04:22:32;8.10;99.90
39951;DHT22;25629;51.444;-2.606;2023-04-26T04:24:58;8.10;99.90
39951;DHT22;25629;51.444;-2.606;2023-04-26T04:27:24;8.10;99.90
39951;DHT22;25629;51.444;-2.606;2023-04-26T04:29:50;8.10;99.90
39951;DHT22;25629;51.444;-2.606;2023-04-26T04:32:16;8.10;99.90
39951;DHT22;25629;51.444;-2.606;2023-04-26T04:34:41;8.10;99.90
39951;DHT22;25629;51.444;-2.606;2023-04-26T04:37:08;8.10;1.00
39951;DHT22;25629;51.444;-2.606;2023-04-26T04:39:34;8.00;1.00
39951;DHT22;25629;51.444;-2.606;2023-04-26T04:41:59;8.00;1.00
39951;DHT22;25629;51.444;-2.606;2023-04-26T04:44:25;8.00;1.00
39951;DHT22;25629;51.444;-2.606;2023-04-26T04:46:51;8.00;1.00
39951;DHT22;25629;51.444;-2.606;2023-04-26T04:49:17;8.00;99.90
39951;DHT22;25629;51.444;-2.606;2023-04-26T04:51:43;8.00;99.90
39951;DHT22;25629;51.444;-2.606;2023-04-26T04:54:12;8.00;99.90
39951;DHT22;25629;51.444;-2.606;2023-04-26T04:56:38;8.10;99.90
39951;DHT22;25629;51.444;-2.606;2023-04-26T04:59:04;8.10;27.20
39951;DHT22;25629;51.444;-2.606;2023-04-26T05:01:30;8.10;99.90
39951;DHT22;25629;51.444;-2.606;2023-04-26T05:03:56;8.10;99.90
39951;DHT22;25629;51.444;-2.606;2023-04-26T05:06:22;8.10;99.90
39951;DHT22;25629;51.444;-2.606;2023-04-26T05:08:48;8.10;99.90
39951;DHT22;25629;51.444;-2.606;2023-04-26T05:11:14;8.10;99.90
39951;DHT22;25629;51.444;-2.606;2023-04-26T05:13:40;8.20;1.00
39951;DHT22;25629;51.444;-2.606;2023-04-26T05:16:05;8.20;1.00
39951;DHT22;25629;51.444;-2.606;2023-04-26T05:18:31;8.20;99.90
39951;DHT22;25629;51.444;-2.606;2023-04-26T05:20:57;8.20;90.10
39951;DHT22;25629;51.444;-2.606;2023-04-26T05:23:22;8.30;67.00
39951;DHT22;25629;51.444;-2.606;2023-04-26T05:25:48;8.30;99.90
39951;DHT22;25629;51.444;-2.606;2023-04-26T05:28:15;8.30;90.40
39951;DHT22;25629;51.444;-2.606;2023-04-26T05:30:40;8.30;9.20
39951;DHT22;25629;51.444;-2.606;2023-04-26T05:33:06;8.30;6.30
39951;DHT22;25629;51.444;-2.606;2023-04-26T05:35:32;8.30;99.90
39951;DHT22;25629;51.444;-2.606;2023-04-26T05:37:57;8.30;99.90
39951;DHT22;25629;51.444;-2.606;2023-04-26T05:40:23;8.30;99.90
39951;DHT22;25629;51.444;-2.606;2023-04-26T05:42:49;8.40;99.90
39951;DHT22;25629;51.444;-2.606;2023-04-26T05:45:15;8.40;99.90
39951;DHT22;25629;51.444;-2.606;2023-04-26T05:47:40;8.40;99.90
39951;DHT22;25629;51.444;-2.606;2023-04-26T05:50:06;8.50;1.00
39951;DHT22;25629;51.444;-2.606;2023-04-26T05:52:32;8.50;99.90
39951;DHT22;25629;51.444;-2.606;2023-04-26T05:54:58;8.60;18.70
39951;DHT22;25629;51.444;-2.606;2023-04-26T05:57:23;8.60;1.00
39951;DHT22;25629;51.444;-2.606;2023-04-26T05:59:49;8.60;99.90
39951;DHT22;25629;51.444;-2.606;2023-04-26T06:02:14;8.70;99.90
39951;DHT22;25629;51.444;-2.606;2023-04-26T06:04:40;8.70;67.10
39951;DHT22;25629;51.444;-2.606;2023-04-26T06:07:06;8.70;99.90
39951;DHT22;25629;51.444;-2.606;2023-04-26T06:09:31;8.80;99.90
39951;DHT22;25629;51.444;-2.606;2023-04-26T06:11:57;8.80;1.00
39951;DHT22;25629;51.444;-2.606;2023-04-26T06:14:22;8.80;99.90
39951;DHT22;25629;51.444;-2.606;2023-04-26T06:16:48;8.80;99.90
39951;DHT22;25629;51.444;-2.606;2023-04-26T06:19:13;8.70;99.90
39951;DHT22;25629;51.444;-2.606;2023-04-26T06:21:39;8.80;99.90
39951;DHT22;25629;51.444;-2.606;2023-04-26T06:24:05;8.90;99.90
39951;DHT22;25629;51.444;-2.606;2023-04-26T06:26:31;9.00;1.00
39951;DHT22;25629;51.444;-2.606;2023-04-26T06:28:57;9.10;1.00
39951;DHT22;25629;51.444;-2.606;2023-04-26T06:31:22;9.20;99.90
39951;DHT22;25629;51.444;-2.606;2023-04-26T06:33:48;9.30;99.90
39951;DHT22;25629;51.444;-2.606;2023-04-26T06:36:13;9.30;1.00
39951;DHT22;25629;51.444;-2.606;2023-04-26T06:38:39;9.20;99.90
39951;DHT22;25629;51.444;-2.606;2023-04-26T06:41:04;9.20;1.00
39951;DHT22;25629;51.444;-2.606;2023-04-26T06:43:30;9.10;99.90
39951;DHT22;25629;51.444;-2.606;2023-04-26T06:45:55;9.20;1.00
39951;DHT22;25629;51.444;-2.606;2023-04-26T06:48:21;9.20;1.00
39951;DHT22;25629;51.444;-2.606;2023-04-26T06:50:47;9.30;99.90
39951;DHT22;25629;51.444;-2.606;2023-04-26T06:53:12;9.50;99.90
39951;DHT22;25629;51.444;-2.606;2023-04-26T06:55:38;9.60;99.90
39951;DHT22;25629;51.444;-2.606;2023-04-26T06:58:04;9.50;99.90
39951;DHT22;25629;51.444;-2.606;2023-04-26T07:00:29;9.60;56.10
39951;DHT22;25629;51.444;-2.606;2023-04-26T07:02:55;9.60;87.80
39951;DHT22;25629;51.444;-2.606;2023-04-26T07:05:21;9.70;6.30
39951;DHT22;25629;51.444;-2.606;2023-04-26T07:07:46;9.80;71.00
39951;DHT22;25629;51.444;-2.606;2023-04-26T07:10:12;9.90;32.20
39951;DHT22;25629;51.444;-2.606;2023-04-26T07:12:38;10.10;1.00
39951;DHT22;25629;51.444;-2.606;2023-04-26T07:15:03;10.20;1.00
39951;DHT22;25629;51.444;-2.606;2023-04-26T07:17:31;10.20;99.90
39951;DHT22;25629;51.444;-2.606;2023-04-26T07:19:57;10.20;99.90
39951;DHT22;25629;51.444;-2.606;2023-04-26T07:22:22;10.00;99.90
39951;DHT22;25629;51.444;-2.606;2023-04-26T07:24:48;9.90;1.00
39951;DHT22;25629;51.444;-2.606;2023-04-26T07:27:13;9.90;1.00
39951;DHT22;25629;51.444;-2.606;2023-04-26T07:29:39;10.00;1.00
39951;DHT22;25629;51.444;-2.606;2023-04-26T07:32:05;10.00;99.90
39951;DHT22;25629;51.444;-2.606;2023-04-26T07:34:31;10.20;99.90
39951;DHT22;25629;51.444;-2.606;2023-04-26T07:36:56;10.30;99.90
39951;DHT22;25629;51.444;-2.606;2023-04-26T07:39:22;10.40;99.90
39951;DHT22;25629;51.444;-2.606;2023-04-26T07:41:48;10.40;99.90
39951;DHT22;25629;51.444;-2.606;2023-04-26T07:44:14;10.40;99.90
39951;DHT22;25629;51.444;-2.606;2023-04-26T07:46:39;10.60;99.90
39951;DHT22;25629;51.444;-2.606;2023-04-26T07:49:05;10.60;99.90
39951;DHT22;25629;51.444;-2.606;2023-04-26T07:51:30;10.60;99.90
39951;DHT22;25629;51.444;-2.606;2023-04-26T07:53:56;10.60;99.90
39951;DHT22;25629;51.444;-2.606;2023-04-26T07:56:22;10.60;99.90
39951;DHT22;25629;51.444;-2.606;2023-04-26T07:58:48;10.60;99.90
39951;DHT22;25629;51.444;-2.606;2023-04-26T08:01:14;10.70;99.90
39951;DHT22;25629;51.444;-2.606;2023-04-26T08:03:40;10.90;99.90
39951;DHT22;25629;51.444;-2.606;2023-04-26T08:06:06;11.00;99.90
39951;DHT22;25629;51.444;-2.606;2023-04-26T08:08:33;11.10;99.90
39951;DHT22;25629;51.444;-2.606;2023-04-26T08:10:59;11.20;99.90
39951;DHT22;25629;51.444;-2.606;2023-04-26T08:13:25;11.30;99.90
39951;DHT22;25629;51.444;-2.606;2023-04-26T08:15:51;11.30;99.90
39951;DHT22;25629;51.444;-2.606;2023-04-26T08:18:16;11.50;99.90
39951;DHT22;25629;51.444;-2.606;2023-04-26T08:20:42;11.60;99.90
39951;DHT22;25629;51.444;-2.606;2023-04-26T08:23:07;11.60;99.90
39951;DHT22;25629;51.444;-2.606;2023-04-26T08:25:33;11.70;99.90
39951;DHT22;25629;51.444;-2.606;2023-04-26T08:27:59;11.90;99.90
39951;DHT22;25629;51.444;-2.606;2023-04-26T08:30:25;12.10;99.90
39951;DHT22;25629;51.444;-2.606;2023-04-26T08:32:50;12.30;99.90
39951;DHT22;25629;51.444;-2.606;2023-04-26T08:35:16;12.40;99.90
39951;DHT22;25629;51.444;-2.606;2023-04-26T08:37:42;12.30;99.90
39951;DHT22;25629;51.444;-2.606;2023-04-26T08:40:07;12.40;99.90
39951;DHT22;25629;51.444;-2.606;2023-04-26T08:42:38;12.40;99.90
39951;DHT22;25629;51.444;-2.606;2023-04-26T08:45:04;12.50;99.90
39951;DHT22;25629;51.444;-2.606;2023-04-26T08:49:59;12.70;99.90
39951;DHT22;25629;51.444;-2.606;2023-04-26T08:52:28;12.70;99.90
39951;DHT22;25629;51.444;-2.606;2023-04-26T08:54:54;12.90;99.90
39951;DHT22;25629;51.444;-2.606;2023-04-26T08:57:21;12.90;99.90
39951;DHT22;25629;51.444;-2.606;2023-04-26T08:59:46;12.90;99.90
39951;DHT22;25629;51.444;-2.606;2023-04-26T09:02:13;13.00;99.90
39951;DHT22;25629;51.444;-2.606;2023-04-26T09:04:41;13.00;99.90
39951;DHT22;25629;51.444;-2.606;2023-04-26T09:07:07;13.20;99.90
39951;DHT22;25629;51.444;-2.606;2023-04-26T09:09:34;13.20;99.90
39951;DHT22;25629;51.444;-2.606;2023-04-26T09:12:03;13.40;99.50
39951;DHT22;25629;51.444;-2.606;2023-04-26T09:14:29;13.50;63.20
39951;DHT22;25629;51.444;-2.606;2023-04-26T09:16:55;13.60;78.70
39951;DHT22;25629;51.444;-2.606;2023-04-26T09:19:42;13.50;48.40
39951;DHT22;25629;51.444;-2.606;2023-04-26T09:22:07;13.50;53.60
39951;DHT22;25629;51.444;-2.606;2023-04-26T09:24:51;13.80;46.90
39951;DHT22;25629;51.444;-2.606;2023-04-26T09:27:17;14.10;44.00
39951;DHT22;25629;51.444;-2.606;2023-04-26T09:29:56;14.40;18.70
39951;DHT22;25629;51.444;-2.606;2023-04-26T09:32:22;14.70;3.90
39951;DHT22;25629;51.444;-2.606;2023-04-26T09:34:49;14.40;1.00
39951;DHT22;25629;51.444;-2.606;2023-04-26T09:37:14;14.20;1.00
39951;DHT22;25629;51.444;-2.606;2023-04-26T09:39:41;14.10;1.00
39951;DHT22;25629;51.444;-2.606;2023-04-26T09:42:07;14.10;1.40
39951;DHT22;25629;51.444;-2.606;2023-04-26T09:44:33;14.30;1.00
39951;DHT22;25629;51.444;-2.606;2023-04-26T09:47:00;14.10;1.00
39951;DHT22;25629;51.444;-2.606;2023-04-26T09:49:26;14.00;4.40
39951;DHT22;25629;51.444;-2.606;2023-04-26T09:52:25;14.00;1.00
39951;DHT22;25629;51.444;-2.606;2023-04-26T09:54:48;14.20;1.00
39951;DHT22;25629;51.444;-2.606;2023-04-26T09:57:15;13.90;1.00
39951;DHT22;25629;51.444;-2.606;2023-04-26T09:59:42;14.10;1.00
39951;DHT22;25629;51.444;-2.606;2023-04-26T10:02:29;14.00;1.00
39951;DHT22;25629;51.444;-2.606;2023-04-26T10:04:55;13.60;1.00
39951;DHT22;25629;51.444;-2.606;2023-04-26T10:07:21;13.40;1.00
39951;DHT22;25629;51.444;-2.606;2023-04-26T10:09:47;13.30;5.10
39951;DHT22;25629;51.444;-2.606;2023-04-26T10:12:14;13.40;13.90
39951;DHT22;25629;51.444;-2.606;2023-04-26T10:14:41;13.50;15.00
39951;DHT22;25629;51.444;-2.606;2023-04-26T10:17:06;13.50;22.60
39951;DHT22;25629;51.444;-2.606;2023-04-26T10:19:33;13.50;22.20
39951;DHT22;25629;51.444;-2.606;2023-04-26T10:22:00;13.60;14.10
39951;DHT22;25629;51.444;-2.606;2023-04-26T10:24:26;13.70;25.60
39951;DHT22;25629;51.444;-2.606;2023-04-26T10:26:52;13.80;10.20
39951;DHT22;25629;51.444;-2.606;2023-04-26T10:29:25;13.80;20.20
39951;DHT22;25629;51.444;-2.606;2023-04-26T10:34:26;13.90;18.00
39951;DHT22;25629;51.444;-2.606;2023-04-26T10:39:36;14.00;16.20
39951;DHT22;25629;51.444;-2.606;2023-04-26T10:42:24;13.90;16.30
39951;DHT22;25629;51.444;-2.606;2023-04-26T10:44:49;13.80;23.00
39951;DHT22;25629;51.444;-2.606;2023-04-26T10:49:49;13.70;23.80
39951;DHT22;25629;51.444;-2.606;2023-04-26T10:52:19;13.70;18.70
39951;DHT22;25629;51.444;-2.606;2023-04-26T10:54:46;13.90;20.80
39951;DHT22;25629;51.444;-2.606;2023-04-26T10:57:11;14.10;22.60
39951;DHT22;25629;51.444;-2.606;2023-04-26T10:59:38;14.30;12.80
39951;DHT22;25629;51.444;-2.606;2023-04-26T11:02:04;14.30;14.20
39951;DHT22;25629;51.444;-2.606;2023-04-26T11:07:14;14.40;7.70
39951;DHT22;25629;51.444;-2.606;2023-04-26T11:09:47;14.30;12.80
39951;DHT22;25629;51.444;-2.606;2023-04-26T11:12:13;14.30;21.70
39951;DHT22;25629;51.444;-2.606;2023-04-26T11:14:43;14.40;15.50
39951;DHT22;25629;51.444;-2.606;2023-04-26T11:17:09;14.50;9.50
39951;DHT22;25629;51.444;-2.606;2023-04-26T11:19:34;14.50;16.00
39951;DHT22;25629;51.444;-2.606;2023-04-26T11:22:00;14.40;6.60
39951;DHT22;25629;51.444;-2.606;2023-04-26T11:24:27;14.30;20.90
39951;DHT22;25629;51.444;-2.606;2023-04-26T11:26:53;14.60;16.50
39951;DHT22;25629;51.444;-2.606;2023-04-26T11:29:19;14.60;22.90
39951;DHT22;25629;51.444;-2.606;2023-04-26T11:31:51;14.80;17.70
39951;DHT22;25629;51.444;-2.606;2023-04-26T11:34:18;14.90;12.30
39951;DHT22;25629;51.444;-2.606;2023-04-26T11:36:44;15.20;17.70
39951;DHT22;25629;51.444;-2.606;2023-04-26T11:39:11;15.40;1.00
39951;DHT22;25629;51.444;-2.606;2023-04-26T11:41:37;15.30;1.00
39951;DHT22;25629;51.444;-2.606;2023-04-26T11:44:03;15.10;1.00
39951;DHT22;25629;51.444;-2.606;2023-04-26T11:46:28;14.90;1.00
39951;DHT22;25629;51.444;-2.606;2023-04-26T11:48:54;14.90;1.00
39951;DHT22;25629;51.444;-2.606;2023-04-26T11:51:20;15.10;1.00
39951;DHT22;25629;51.444;-2.606;2023-04-26T11:53:46;15.10;1.00
39951;DHT22;25629;51.444;-2.606;2023-04-26T11:56:18;15.10;1.00
39951;DHT22;25629;51.444;-2.606;2023-04-26T11:58:47;15.00;1.60
39951;DHT22;25629;51.444;-2.606;2023-04-26T12:01:18;15.10;1.00
39951;DHT22;25629;51.444;-2.606;2023-04-26T12:03:48;15.30;1.00
39951;DHT22;25629;51.444;-2.606;2023-04-26T12:06:13;15.50;1.00
39951;DHT22;25629;51.444;-2.606;2023-04-26T12:08:39;15.80;1.00
39951;DHT22;25629;51.444;-2.606;2023-04-26T12:11:04;15.80;1.00
39951;DHT22;25629;51.444;-2.606;2023-04-26T12:13:30;15.80;1.00
39951;DHT22;25629;51.444;-2.606;2023-04-26T12:15:57;15.80;1.00
39951;DHT22;25629;51.444;-2.606;2023-04-26T12:18:28;15.80;1.00
39951;DHT22;25629;51.444;-2.606;2023-04-26T12:20:56;15.70;1.00
39951;DHT22;25629;51.444;-2.606;2023-04-26T12:23:22;15.70;1.00
39951;DHT22;25629;51.444;-2.606;2023-04-26T12:25:55;15.70;1.00
39951;DHT22;25629;51.444;-2.606;2023-04-26T12:28:21;15.70;1.00
39951;DHT22;25629;51.444;-2.606;2023-04-26T12:30:47;15.80;1.00
39951;DHT22;25629;51.444;-2.606;2023-04-26T12:33:13;15.80;1.00
39951;DHT22;25629;51.444;-2.606;2023-04-26T12:35:38;15.90;1.00
39951;DHT22;25629;51.444;-2.606;2023-04-26T12:38:04;15.90;1.00
39951;DHT22;25629;51.444;-2.606;2023-04-26T12:40:29;16.00;1.00
39951;DHT22;25629;51.444;-2.606;2023-04-26T12:42:58;16.20;1.00
39951;DHT22;25629;51.444;-2.606;2023-04-26T12:45:24;16.50;1.00
39951;DHT22;25629;51.444;-2.606;2023-04-26T12:47:52;16.70;1.00
39951;DHT22;25629;51.444;-2.606;2023-04-26T12:50:17;16.90;1.00
39951;DHT22;25629;51.444;-2.606;2023-04-26T12:52:43;17.10;1.00
39951;DHT22;25629;51.444;-2.606;2023-04-26T12:55:09;17.00;1.00
39951;DHT22;25629;51.444;-2.606;2023-04-26T12:57:35;16.90;1.00
39951;DHT22;25629;51.444;-2.606;2023-04-26T13:00:02;17.10;1.00
39951;DHT22;25629;51.444;-2.606;2023-04-26T13:02:28;17.60;1.00
39951;DHT22;25629;51.444;-2.606;2023-04-26T13:04:54;17.90;1.00
39951;DHT22;25629;51.444;-2.606;2023-04-26T13:07:20;18.20;1.00
39951;DHT22;25629;51.444;-2.606;2023-04-26T13:09:46;18.20;1.00
39951;DHT22;25629;51.444;-2.606;2023-04-26T13:12:13;18.20;1.00
39951;DHT22;25629;51.444;-2.606;2023-04-26T13:14:39;18.10;1.00
39951;DHT22;25629;51.444;-2.606;2023-04-26T13:17:05;18.00;1.00
39951;DHT22;25629;51.444;-2.606;2023-04-26T13:19:33;17.80;1.00
39951;DHT22;25629;51.444;-2.606;2023-04-26T13:21:58;17.40;1.00
39951;DHT22;25629;51.444;-2.606;2023-04-26T13:24:24;17.10;1.00
39951;DHT22;25629;51.444;-2.606;2023-04-26T13:26:50;16.90;1.00
39951;DHT22;25629;51.444;-2.606;2023-04-26T13:29:15;16.70;1.00
39951;DHT22;25629;51.444;-2.606;2023-04-26T13:31:41;16.50;1.00
39951;DHT22;25629;51.444;-2.606;2023-04-26T13:34:07;16.30;1.00
39951;DHT22;25629;51.444;-2.606;2023-04-26T13:36:34;16.10;1.00
39951;DHT22;25629;51.444;-2.606;2023-04-26T13:38:59;16.00;1.00
39951;DHT22;25629;51.444;-2.606;2023-04-26T13:41:25;15.90;1.00
39951;DHT22;25629;51.444;-2.606;2023-04-26T13:43:51;15.70;1.00
39951;DHT22;25629;51.444;-2.606;2023-04-26T13:46:16;15.60;1.00
39951;DHT22;25629;51.444;-2.606;2023-04-26T13:48:42;15.50;1.00
39951;DHT22;25629;51.444;-2.606;2023-04-26T13:51:07;15.40;1.00
39951;DHT22;25629;51.444;-2.606;2023-04-26T13:53:33;15.10;1.00
39951;DHT22;25629;51.444;-2.606;2023-04-26T13:55:58;15.10;1.00
39951;DHT22;25629;51.444;-2.606;2023-04-26T13:58:24;15.00;1.00
39951;DHT22;25629;51.444;-2.606;2023-04-26T14:00:50;15.00;1.00
39951;DHT22;25629;51.444;-2.606;2023-04-26T14:03:16;14.90;1.00
39951;DHT22;25629;51.444;-2.606;2023-04-26T14:05:42;14.80;1.00
39951;DHT22;25629;51.444;-2.606;2023-04-26T14:08:07;14.60;1.00
39951;DHT22;25629;51.444;-2.606;2023-04-26T14:10:33;14.60;1.00
39951;DHT22;25629;51.444;-2.606;2023-04-26T14:12:58;14.50;1.00
39951;DHT22;25629;51.444;-2.606;2023-04-26T14:15:24;14.50;1.00
39951;DHT22;25629;51.444;-2.606;2023-04-26T14:17:49;14.50;1.00
39951;DHT22;25629;51.444;-2.606;2023-04-26T14:20:15;14.50;1.00
39951;DHT22;25629;51.444;-2.606;2023-04-26T14:22:41;14.50;1.00
39951;DHT22;25629;51.444;-2.606;2023-04-26T14:25:07;14.60;1.00
39951;DHT22;25629;51.444;-2.606;2023-04-26T14:27:33;14.60;1.00
39951;DHT22;25629;51.444;-2.606;2023-04-26T14:29:58;14.50;1.00
39951;DHT22;25629;51.444;-2.606;2023-04-26T14:32:24;14.50;1.00
39951;DHT22;25629;51.444;-2.606;2023-04-26T14:34:50;14.40;1.00
39951;DHT22;25629;51.444;-2.606;2023-04-26T14:37:15;14.40;1.00
39951;DHT22;25629;51.444;-2.606;2023-04-26T14:39:41;14.40;1.00
39951;DHT22;25629;51.444;-2.606;2023-04-26T14:42:07;14.40;1.00
39951;DHT22;25629;51.444;-2.606;2023-04-26T14:44:32;14.40;1.00
39951;DHT22;25629;51.444;-2.606;2023-04-26T14:46:58;14.40;1.00
39951;DHT22;25629;51.444;-2.606;2023-04-26T14:49:23;14.40;1.00
39951;DHT22;25629;51.444;-2.606;2023-04-26T14:51:49;14.30;1.00
39951;DHT22;25629;51.444;-2.606;2023-04-26T14:54:15;14.20;1.00
39951;DHT22;25629;51.444;-2.606;2023-04-26T14:56:41;14.10;11.30
39951;DHT22;25629;51.444;-2.606;2023-04-26T14:59:07;14.20;16.30
39951;DHT22;25629;51.444;-2.606;2023-04-26T15:01:32;14.20;15.60
39951;DHT22;25629;51.444;-2.606;2023-04-26T15:03:58;14.10;19.90
39951;DHT22;25629;51.444;-2.606;2023-04-26T15:06:24;14.20;82.60
39951;DHT22;25629;51.444;-2.606;2023-04-26T15:08:49;14.20;71.90
39951;DHT22;25629;51.444;-2.606;2023-04-26T15:11:15;14.30;64.00
39951;DHT22;25629;51.444;-2.606;2023-04-26T15:13:40;14.40;52.10
39951;DHT22;25629;51.444;-2.606;2023-04-26T15:16:06;14.50;37.50
39951;DHT22;25629;51.444;-2.606;2023-04-26T15:18:31;14.50;16.90
39951;DHT22;25629;51.444;-2.606;2023-04-26T15:20:57;14.50;23.30
39951;DHT22;25629;51.444;-2.606;2023-04-26T15:23:23;14.70;26.50
39951;DHT22;25629;51.444;-2.606;2023-04-26T15:25:49;14.70;25.70
39951;DHT22;25629;51.444;-2.606;2023-04-26T15:28:15;14.80;19.70
39951;DHT22;25629;51.444;-2.606;2023-04-26T15:30:40;14.80;17.50
39951;DHT22;25629;51.444;-2.606;2023-04-26T15:33:06;14.70;9.10
39951;DHT22;25629;51.444;-2.606;2023-04-26T15:35:32;14.40;14.40
39951;DHT22;25629;51.444;-2.606;2023-04-26T15:37:58;14.20;9.30